sensor_id;sensor_type;location;lat;lon;timestamp;pressure;altitude;pressure_sealevel;temperature;humidity
64835;BME280;51293;59.296;18.006;2023-02-01T00:01:31;98642.16;;;-4.35;92.30
64835;BME280;51293;59.296;18.006;2023-02-01T00:03:57;98656.00;;;-4.33;92.68
64835;BME280;51293;59.296;18.006;2023-02-01T00:06:22;98648.91;;;-4.32;92.65
64835;BME280;51293;59.296;18.006;2023-02-01T00:08:47;98654.38;;;-4.34;92.93
64835;BME280;51293;59.296;18.006;2023-02-01T00:11:13;98650.72;;;-4.33;92.91
64835;BME280;51293;59.296;18.006;2023-02-01T00:13:40;98647.25;;;-4.33;92.90
64835;BME280;51293;59.296;18.006;2023-02-01T00:16:28;98646.25;;;-4.32;93.07
64835;BME280;51293;59.296;18.006;2023-02-01T00:19:06;98647.25;;;-4.33;93.19
64835;BME280;51293;59.296;18.006;2023-02-01T00:21:32;98643.63;;;-4.32;93.26
64835;BME280;51293;59.296;18.006;2023-02-01T00:23:58;98647.25;;;-4.33;93.14
64835;BME280;51293;59.296;18.006;2023-02-01T00:26:34;98645.00;;;-4.36;93.37
64835;BME280;51293;59.296;18.006;2023-02-01T00:29:02;98637.06;;;-4.36;93.36
64835;BME280;51293;59.296;18.006;2023-02-01T00:31:28;98634.44;;;-4.36;93.53
64835;BME280;51293;59.296;18.006;2023-02-01T00:33:53;98633.03;;;-4.32;93.95
64835;BME280;51293;59.296;18.006;2023-02-01T00:36:18;98630.22;;;-4.31;93.93
64835;BME280;51293;59.296;18.006;2023-02-01T00:38:44;98633.50;;;-4.29;93.88
64835;BME280;51293;59.296;18.006;2023-02-01T00:41:13;98631.06;;;-4.30;94.12
64835;BME280;51293;59.296;18.006;2023-02-01T00:43:39;98630.03;;;-4.29;94.03
64835;BME280;51293;59.296;18.006;2023-02-01T00:46:05;98629.78;;;-4.34;93.61
64835;BME280;51293;59.296;18.006;2023-02-01T00:48:30;98632.41;;;-4.34;93.56
64835;BME280;51293;59.296;18.006;2023-02-01T00:51:03;98641.16;;;-4.34;93.67
64835;BME280;51293;59.296;18.006;2023-02-01T00:53:30;98632.84;;;-4.31;93.40
64835;BME280;51293;59.296;18.006;2023-02-01T00:55:56;98626.09;;;-4.18;93.04
64835;BME280;51293;59.296;18.006;2023-02-01T00:58:22;98630.91;;;-4.22;93.36
64835;BME280;51293;59.296;18.006;2023-02-01T01:00:49;98623.38;;;-4.25;93.41
64835;BME280;51293;59.296;18.006;2023-02-01T01:03:15;98624.81;;;-4.22;93.55
64835;BME280;51293;59.296;18.006;2023-02-01T01:05:45;98613.25;;;-4.21;93.50
64835;BME280;51293;59.296;18.006;2023-02-01T01:08:10;98612.41;;;-4.22;93.54
64835;BME280;51293;59.296;18.006;2023-02-01T01:10:36;98615.63;;;-4.27;93.71
64835;BME280;51293;59.296;18.006;2023-02-01T01:13:01;98614.00;;;-4.28;93.68
64835;BME280;51293;59.296;18.006;2023-02-01T01:15:27;98612.97;;;-4.27;93.69
64835;BME280;51293;59.296;18.006;2023-02-01T01:17:52;98612.59;;;-4.24;93.57
64835;BME280;51293;59.296;18.006;2023-02-01T01:20:17;98616.72;;;-4.21;93.69
64835;BME280;51293;59.296;18.006;2023-02-01T01:22:46;98623.63;;;-4.20;93.66
64835;BME280;51293;59.296;18.006;2023-02-01T01:25:12;98617.16;;;-4.17;93.60
64835;BME280;51293;59.296;18.006;2023-02-01T01:27:37;98627.16;;;-4.13;93.58
64835;BME280;51293;59.296;18.006;2023-02-01T01:30:04;98630.63;;;-4.12;93.60
64835;BME280;51293;59.296;18.006;2023-02-01T01:32:30;98630.44;;;-4.11;93.58
64835;BME280;51293;59.296;18.006;2023-02-01T01:34:55;98639.38;;;-4.12;93.60
64835;BME280;51293;59.296;18.006;2023-02-01T01:37:21;98637.56;;;-4.11;93.41
64835;BME280;51293;59.296;18.006;2023-02-01T01:39:46;98636.81;;;-4.05;93.35
64835;BME280;51293;59.296;18.006;2023-02-01T01:42:12;98636.63;;;-4.04;93.01
64835;BME280;51293;59.296;18.006;2023-02-01T01:45:19;98631.94;;;-4.02;93.15
64835;BME280;51293;59.296;18.006;2023-02-01T01:47:48;98635.22;;;-4.00;93.34
64835;BME280;51293;59.296;18.006;2023-02-01T01:50:16;98643.78;;;-3.98;93.75
64835;BME280;51293;59.296;18.006;2023-02-01T01:52:44;98637.13;;;-3.93;93.36
64835;BME280;51293;59.296;18.006;2023-02-01T01:55:13;98639.19;;;-3.89;93.47
64835;BME280;51293;59.296;18.006;2023-02-01T01:57:42;98645.94;;;-3.86;93.37
64835;BME280;51293;59.296;18.006;2023-02-01T02:00:14;98646.19;;;-3.81;93.40
64835;BME280;51293;59.296;18.006;2023-02-01T02:02:43;98648.47;;;-3.78;93.13
64835;BME280;51293;59.296;18.006;2023-02-01T02:05:10;98648.47;;;-3.78;93.02
64835;BME280;51293;59.296;18.006;2023-02-01T02:07:40;98643.59;;;-3.75;93.03
64835;BME280;51293;59.296;18.006;2023-02-01T02:10:09;98644.41;;;-3.74;92.96
64835;BME280;51293;59.296;18.006;2023-02-01T02:12:38;98639.78;;;-3.72;93.05
64835;BME280;51293;59.296;18.006;2023-02-01T02:15:06;98638.56;;;-3.70;93.21
64835;BME280;51293;59.296;18.006;2023-02-01T02:26:32;98634.50;;;-3.65;92.41
64835;BME280;51293;59.296;18.006;2023-02-01T02:34:55;98638.63;;;-3.63;91.70
64835;BME280;51293;59.296;18.006;2023-02-01T02:40:17;98644.47;;;-3.68;91.37
64835;BME280;51293;59.296;18.006;2023-02-01T02:43:11;98648.13;;;-3.69;91.20
64835;BME280;51293;59.296;18.006;2023-02-01T02:46:09;98655.88;;;-3.67;91.39
64835;BME280;51293;59.296;18.006;2023-02-01T02:52:13;98645.91;;;-3.65;91.50
64835;BME280;51293;59.296;18.006;2023-02-01T02:55:00;98651.84;;;-3.63;91.95
64835;BME280;51293;59.296;18.006;2023-02-01T02:57:33;98643.09;;;-3.63;91.96
64835;BME280;51293;59.296;18.006;2023-02-01T03:00:21;98643.91;;;-3.63;91.99
64835;BME280;51293;59.296;18.006;2023-02-01T03:03:06;98634.97;;;-3.62;92.12
64835;BME280;51293;59.296;18.006;2023-02-01T03:05:51;98645.75;;;-3.63;92.42
64835;BME280;51293;59.296;18.006;2023-02-01T03:08:43;98635.53;;;-3.67;92.82
64835;BME280;51293;59.296;18.006;2023-02-01T03:11:12;98637.63;;;-3.62;92.49
64835;BME280;51293;59.296;18.006;2023-02-01T03:13:46;98641.09;;;-3.61;92.50
64835;BME280;51293;59.296;18.006;2023-02-01T03:16:33;98641.28;;;-3.63;92.46
64835;BME280;51293;59.296;18.006;2023-02-01T03:21:45;98639.88;;;-3.59;92.91
64835;BME280;51293;59.296;18.006;2023-02-01T03:26:53;98633.81;;;-3.53;93.30
64835;BME280;51293;59.296;18.006;2023-02-01T03:29:26;98639.75;;;-3.51;93.19
64835;BME280;51293;59.296;18.006;2023-02-01T03:31:54;98637.09;;;-3.51;93.44
64835;BME280;51293;59.296;18.006;2023-02-01T03:34:20;98644.63;;;-3.48;93.43
64835;BME280;51293;59.296;18.006;2023-02-01T03:36:52;98647.13;;;-3.46;93.33
64835;BME280;51293;59.296;18.006;2023-02-01T03:39:32;98643.88;;;-3.42;93.57
64835;BME280;51293;59.296;18.006;2023-02-01T03:42:02;98640.22;;;-3.41;93.86
64835;BME280;51293;59.296;18.006;2023-02-01T03:44:38;98640.66;;;-3.37;94.03
64835;BME280;51293;59.296;18.006;2023-02-01T03:47:16;98641.72;;;-3.31;93.76
64835;BME280;51293;59.296;18.006;2023-02-01T03:49:49;98646.44;;;-3.27;93.68
64835;BME280;51293;59.296;18.006;2023-02-01T03:52:22;98645.63;;;-3.27;93.52
64835;BME280;51293;59.296;18.006;2023-02-01T03:54:51;98651.34;;;-3.24;93.47
64835;BME280;51293;59.296;18.006;2023-02-01T03:57:22;98649.50;;;-3.23;93.56
64835;BME280;51293;59.296;18.006;2023-02-01T03:59:49;98653.44;;;-3.19;93.28
64835;BME280;51293;59.296;18.006;2023-02-01T04:02:14;98652.00;;;-3.15;93.41
64835;BME280;51293;59.296;18.006;2023-02-01T04:04:40;98649.19;;;-3.14;93.46
64835;BME280;51293;59.296;18.006;2023-02-01T04:07:05;98643.69;;;-3.12;93.71
64835;BME280;51293;59.296;18.006;2023-02-01T04:09:31;98649.81;;;-3.12;93.56
64835;BME280;51293;59.296;18.006;2023-02-01T04:11:56;98654.72;;;-3.08;93.48
64835;BME280;51293;59.296;18.006;2023-02-01T04:14:22;98658.81;;;-3.06;93.44
64835;BME280;51293;59.296;18.006;2023-02-01T04:16:47;98655.16;;;-3.05;92.99
64835;BME280;51293;59.296;18.006;2023-02-01T04:19:12;98654.34;;;-3.05;93.32
64835;BME280;51293;59.296;18.006;2023-02-01T04:21:38;98656.41;;;-3.01;93.18
64835;BME280;51293;59.296;18.006;2023-02-01T04:24:04;98655.56;;;-3.01;93.08
64835;BME280;51293;59.296;18.006;2023-02-01T04:26:29;98657.22;;;-3.00;92.59
64835;BME280;51293;59.296;18.006;2023-02-01T04:28:55;98669.28;;;-2.98;92.73
64835;BME280;51293;59.296;18.006;2023-02-01T04:31:20;98658.47;;;-2.96;92.66
64835;BME280;51293;59.296;18.006;2023-02-01T04:33:51;98664.59;;;-2.96;92.77
64835;BME280;51293;59.296;18.006;2023-02-01T04:36:18;98662.13;;;-2.97;92.70
64835;BME280;51293;59.296;18.006;2023-02-01T04:38:45;98656.84;;;-2.97;92.76
64835;BME280;51293;59.296;18.006;2023-02-01T04:41:11;98650.53;;;-2.96;92.77
64835;BME280;51293;59.296;18.006;2023-02-01T04:43:37;98655.63;;;-2.95;92.77
64835;BME280;51293;59.296;18.006;2023-02-01T04:46:02;98660.94;;;-2.95;92.60
64835;BME280;51293;59.296;18.006;2023-02-01T04:48:28;98662.56;;;-2.94;92.13
64835;BME280;51293;59.296;18.006;2023-02-01T04:50:53;98657.06;;;-2.92;92.21
64835;BME280;51293;59.296;18.006;2023-02-01T04:53:18;98658.50;;;-2.90;92.06
64835;BME280;51293;59.296;18.006;2023-02-01T04:55:44;98655.47;;;-2.87;91.94
64835;BME280;51293;59.296;18.006;2023-02-01T04:58:10;98662.41;;;-2.86;92.13
64835;BME280;51293;59.296;18.006;2023-02-01T05:00:36;98662.22;;;-2.84;91.93
64835;BME280;51293;59.296;18.006;2023-02-01T05:03:01;98661.38;;;-2.85;91.90
64835;BME280;51293;59.296;18.006;2023-02-01T05:05:27;98668.94;;;-2.82;91.89
64835;BME280;51293;59.296;18.006;2023-02-01T05:07:53;98664.28;;;-2.79;91.92
64835;BME280;51293;59.296;18.006;2023-02-01T05:10:18;98674.47;;;-2.76;92.06
64835;BME280;51293;59.296;18.006;2023-02-01T05:12:44;98668.63;;;-2.65;91.87
64835;BME280;51293;59.296;18.006;2023-02-01T05:15:28;98674.06;;;-2.73;91.58
64835;BME280;51293;59.296;18.006;2023-02-01T05:17:54;98680.22;;;-2.73;91.71
64835;BME280;51293;59.296;18.006;2023-02-01T05:20:19;98674.28;;;-2.75;91.67
64835;BME280;51293;59.296;18.006;2023-02-01T05:22:44;98683.44;;;-2.77;91.67
64835;BME280;51293;59.296;18.006;2023-02-01T05:25:10;98683.69;;;-2.72;91.67
64835;BME280;51293;59.296;18.006;2023-02-01T05:27:35;98684.25;;;-2.77;92.03
64835;BME280;51293;59.296;18.006;2023-02-01T05:30:03;98690.22;;;-2.68;91.94
64835;BME280;51293;59.296;18.006;2023-02-01T05:32:28;98687.53;;;-2.75;91.97
64835;BME280;51293;59.296;18.006;2023-02-01T05:34:53;98689.38;;;-2.75;92.34
64835;BME280;51293;59.296;18.006;2023-02-01T05:37:19;98692.00;;;-2.75;92.36
64835;BME280;51293;59.296;18.006;2023-02-01T05:39:44;98693.91;;;-2.69;92.39
64835;BME280;51293;59.296;18.006;2023-02-01T05:42:10;98701.59;;;-2.74;93.23
64835;BME280;51293;59.296;18.006;2023-02-01T05:44:35;98711.63;;;-2.70;92.78
64835;BME280;51293;59.296;18.006;2023-02-01T05:47:01;98705.72;;;-2.65;93.18
64835;BME280;51293;59.296;18.006;2023-02-01T05:49:26;98703.06;;;-2.65;92.99
64835;BME280;51293;59.296;18.006;2023-02-01T05:51:51;98697.59;;;-2.64;93.07
64835;BME280;51293;59.296;18.006;2023-02-01T05:54:17;98693.75;;;-2.61;93.11
64835;BME280;51293;59.296;18.006;2023-02-01T05:56:42;98699.84;;;-2.61;93.31
64835;BME280;51293;59.296;18.006;2023-02-01T05:59:09;98702.69;;;-2.62;93.40
64835;BME280;51293;59.296;18.006;2023-02-01T06:01:34;98698.84;;;-2.60;93.52
64835;BME280;51293;59.296;18.006;2023-02-01T06:04:00;98709.03;;;-2.63;94.08
64835;BME280;51293;59.296;18.006;2023-02-01T06:06:25;98710.84;;;-2.64;94.48
64835;BME280;51293;59.296;18.006;2023-02-01T06:08:50;98705.72;;;-2.65;94.28
64835;BME280;51293;59.296;18.006;2023-02-01T06:11:16;98703.72;;;-2.63;94.78
64835;BME280;51293;59.296;18.006;2023-02-01T06:13:41;98697.59;;;-2.64;95.40
64835;BME280;51293;59.296;18.006;2023-02-01T06:16:06;98707.41;;;-2.58;95.34
64835;BME280;51293;59.296;18.006;2023-02-01T06:18:39;98701.06;;;-2.63;95.64
64835;BME280;51293;59.296;18.006;2023-02-01T06:21:05;98710.88;;;-2.57;96.12
64835;BME280;51293;59.296;18.006;2023-02-01T06:23:30;98711.28;;;-2.60;96.07
64835;BME280;51293;59.296;18.006;2023-02-01T06:26:04;98713.31;;;-2.62;96.86
64835;BME280;51293;59.296;18.006;2023-02-01T06:28:30;98712.69;;;-2.58;97.05
64835;BME280;51293;59.296;18.006;2023-02-01T06:30:56;98720.09;;;-2.53;96.85
64835;BME280;51293;59.296;18.006;2023-02-01T06:33:23;98711.94;;;-2.51;96.86
64835;BME280;51293;59.296;18.006;2023-02-01T06:35:48;98715.81;;;-2.54;96.69
64835;BME280;51293;59.296;18.006;2023-02-01T06:38:14;98721.09;;;-2.54;97.09
64835;BME280;51293;59.296;18.006;2023-02-01T06:40:40;98723.94;;;-2.56;97.33
64835;BME280;51293;59.296;18.006;2023-02-01T06:43:07;98719.47;;;-2.55;97.51
64835;BME280;51293;59.296;18.006;2023-02-01T06:45:32;98722.75;;;-2.53;97.48
64835;BME280;51293;59.296;18.006;2023-02-01T06:47:59;98720.69;;;-2.51;97.94
64835;BME280;51293;59.296;18.006;2023-02-01T06:50:25;98725.63;;;-2.48;98.00
64835;BME280;51293;59.296;18.006;2023-02-01T06:52:51;98722.56;;;-2.45;97.91
64835;BME280;51293;59.296;18.006;2023-02-01T06:55:16;98723.81;;;-2.41;98.26
64835;BME280;51293;59.296;18.006;2023-02-01T06:57:41;98725.06;;;-2.37;98.20
64835;BME280;51293;59.296;18.006;2023-02-01T07:00:07;98730.97;;;-2.35;98.06
64835;BME280;51293;59.296;18.006;2023-02-01T07:02:33;98729.16;;;-2.34;98.45
64835;BME280;51293;59.296;18.006;2023-02-01T07:04:58;98725.06;;;-2.37;99.15
64835;BME280;51293;59.296;18.006;2023-02-01T07:07:23;98726.47;;;-2.41;99.70
64835;BME280;51293;59.296;18.006;2023-02-01T07:09:49;98729.56;;;-2.37;99.47
64835;BME280;51293;59.296;18.006;2023-02-01T07:12:15;98727.53;;;-2.35;99.03
64835;BME280;51293;59.296;18.006;2023-02-01T07:14:41;98736.72;;;-2.31;98.94
64835;BME280;51293;59.296;18.006;2023-02-01T07:17:06;98736.31;;;-2.28;98.99
64835;BME280;51293;59.296;18.006;2023-02-01T07:19:31;98734.28;;;-2.26;98.93
64835;BME280;51293;59.296;18.006;2023-02-01T07:21:57;98741.03;;;-2.23;98.75
64835;BME280;51293;59.296;18.006;2023-02-01T07:24:22;98744.53;;;-2.23;99.19
64835;BME280;51293;59.296;18.006;2023-02-01T07:26:47;98751.25;;;-2.20;98.82
64835;BME280;51293;59.296;18.006;2023-02-01T07:29:14;98745.75;;;-2.19;98.86
64835;BME280;51293;59.296;18.006;2023-02-01T07:31:39;98740.03;;;-2.22;99.63
64835;BME280;51293;59.296;18.006;2023-02-01T07:34:04;98741.47;;;-2.20;99.67
64835;BME280;51293;59.296;18.006;2023-02-01T07:36:30;98741.06;;;-2.17;99.81
64835;BME280;51293;59.296;18.006;2023-02-01T07:38:55;98741.66;;;-2.21;100.00
64835;BME280;51293;59.296;18.006;2023-02-01T07:41:22;98737.38;;;-2.22;100.00
64835;BME280;51293;59.296;18.006;2023-02-01T07:43:47;98748.19;;;-2.17;100.00
64835;BME280;51293;59.296;18.006;2023-02-01T07:46:19;98737.59;;;-2.17;100.00
64835;BME280;51293;59.296;18.006;2023-02-01T07:48:45;98745.97;;;-2.20;100.00
64835;BME280;51293;59.296;18.006;2023-02-01T07:51:14;98741.50;;;-2.13;100.00
64835;BME280;51293;59.296;18.006;2023-02-01T07:53:39;98743.13;;;-2.12;100.00
64835;BME280;51293;59.296;18.006;2023-02-01T07:56:11;98743.75;;;-2.10;100.00
64835;BME280;51293;59.296;18.006;2023-02-01T07:58:36;98745.00;;;-2.06;100.00
64835;BME280;51293;59.296;18.006;2023-02-01T08:01:02;98737.66;;;-2.04;100.00
64835;BME280;51293;59.296;18.006;2023-02-01T08:03:59;98741.75;;;-2.02;100.00
64835;BME280;51293;59.296;18.006;2023-02-01T08:06:25;98748.47;;;-1.99;100.00
64835;BME280;51293;59.296;18.006;2023-02-01T08:08:51;98740.97;;;-1.95;100.00
64835;BME280;51293;59.296;18.006;2023-02-01T08:11:18;98749.53;;;-1.93;100.00
64835;BME280;51293;59.296;18.006;2023-02-01T08:13:44;98745.88;;;-1.92;100.00
64835;BME280;51293;59.296;18.006;2023-02-01T08:16:11;98742.38;;;-1.93;100.00
64835;BME280;51293;59.296;18.006;2023-02-01T08:18:37;98747.50;;;-1.91;100.00
64835;BME280;51293;59.296;18.006;2023-02-01T08:21:11;98747.31;;;-1.90;100.00
64835;BME280;51293;59.296;18.006;2023-02-01T08:23:39;98747.72;;;-1.86;100.00
64835;BME280;51293;59.296;18.006;2023-02-01T08:26:18;98753.66;;;-1.84;100.00
64835;BME280;51293;59.296;18.006;2023-02-01T08:28:47;98760.19;;;-1.87;100.00
64835;BME280;51293;59.296;18.006;2023-02-01T08:31:15;98763.84;;;-1.88;100.00
64835;BME280;51293;59.296;18.006;2023-02-01T08:33:42;98765.09;;;-1.84;100.00
64835;BME280;51293;59.296;18.006;2023-02-01T08:36:09;98763.44;;;-1.85;100.00
64835;BME280;51293;59.296;18.006;2023-02-01T08:38:39;98763.88;;;-1.81;100.00
64835;BME280;51293;59.296;18.006;2023-02-01T08:41:13;98759.19;;;-1.79;100.00
64835;BME280;51293;59.296;18.006;2023-02-01T08:43:39;98757.59;;;-1.74;100.00
64835;BME280;51293;59.296;18.006;2023-02-01T08:46:05;98762.28;;;-1.69;100.00
64835;BME280;51293;59.296;18.006;2023-02-01T08:48:31;98755.16;;;-1.62;100.00
64835;BME280;51293;59.296;18.006;2023-02-01T08:50:57;98752.09;;;-1.65;100.00
64835;BME280;51293;59.296;18.006;2023-02-01T08:53:23;98754.53;;;-1.64;100.00
64835;BME280;51293;59.296;18.006;2023-02-01T08:55:48;98762.09;;;-1.61;100.00
64835;BME280;51293;59.296;18.006;2023-02-01T08:58:14;98764.53;;;-1.59;100.00
64835;BME280;51293;59.296;18.006;2023-02-01T09:00:42;98764.34;;;-1.58;100.00
64835;BME280;51293;59.296;18.006;2023-02-01T09:03:10;98759.47;;;-1.54;100.00
64835;BME280;51293;59.296;18.006;2023-02-01T09:05:36;98761.09;;;-1.53;100.00
64835;BME280;51293;59.296;18.006;2023-02-01T09:08:01;98766.19;;;-1.52;100.00
64835;BME280;51293;59.296;18.006;2023-02-01T09:10:26;98760.06;;;-1.52;100.00
64835;BME280;51293;59.296;18.006;2023-02-01T09:12:52;98766.19;;;-1.58;100.00
64835;BME280;51293;59.296;18.006;2023-02-01T09:15:17;98768.03;;;-1.52;100.00
64835;BME280;51293;59.296;18.006;2023-02-01T09:17:42;98765.63;;;-1.47;100.00
64835;BME280;51293;59.296;18.006;2023-02-01T09:20:09;98766.81;;;-1.50;100.00
64835;BME280;51293;59.296;18.006;2023-02-01T09:22:34;98769.69;;;-1.45;100.00
64835;BME280;51293;59.296;18.006;2023-02-01T09:24:59;98766.88;;;-1.30;100.00
64835;BME280;51293;59.296;18.006;2023-02-01T09:27:25;98771.97;;;-1.35;100.00
64835;BME280;51293;59.296;18.006;2023-02-01T09:29:51;98773.19;;;-1.37;100.00
64835;BME280;51293;59.296;18.006;2023-02-01T09:32:21;98772.16;;;-1.36;100.00
64835;BME280;51293;59.296;18.006;2023-02-01T09:34:48;98771.16;;;-1.35;100.00
64835;BME280;51293;59.296;18.006;2023-02-01T09:37:14;98775.44;;;-1.34;100.00
64835;BME280;51293;59.296;18.006;2023-02-01T09:39:40;98773.22;;;-1.31;100.00
64835;BME280;51293;59.296;18.006;2023-02-01T09:45:20;98783.41;;;-1.28;100.00
64835;BME280;51293;59.296;18.006;2023-02-01T09:47:54;98786.88;;;-1.27;100.00
64835;BME280;51293;59.296;18.006;2023-02-01T09:50:25;98778.72;;;-1.26;100.00
64835;BME280;51293;59.296;18.006;2023-02-01T09:53:01;98785.06;;;-1.20;100.00
64835;BME280;51293;59.296;18.006;2023-02-01T09:55:38;98787.13;;;-1.16;100.00
64835;BME280;51293;59.296;18.006;2023-02-01T09:58:30;98783.44;;;-1.15;100.00
64835;BME280;51293;59.296;18.006;2023-02-01T10:00:59;98788.34;;;-1.11;100.00
64835;BME280;51293;59.296;18.006;2023-02-01T10:03:34;98784.47;;;-1.09;100.00
64835;BME280;51293;59.296;18.006;2023-02-01T10:09:13;98773.03;;;-1.03;100.00
64835;BME280;51293;59.296;18.006;2023-02-01T10:14:41;98786.53;;;-0.98;100.00
64835;BME280;51293;59.296;18.006;2023-02-01T10:20:33;98790.19;;;-0.92;100.00
64835;BME280;51293;59.296;18.006;2023-02-01T10:25:56;98795.53;;;-0.86;100.00
64835;BME280;51293;59.296;18.006;2023-02-01T10:28:34;98794.28;;;-0.76;100.00
64835;BME280;51293;59.296;18.006;2023-02-01T10:31:03;98796.13;;;-0.70;100.00
64835;BME280;51293;59.296;18.006;2023-02-01T10:33:42;98799.19;;;-0.67;100.00
64835;BME280;51293;59.296;18.006;2023-02-01T10:36:28;98803.91;;;-0.69;100.00
64835;BME280;51293;59.296;18.006;2023-02-01T10:38:55;98800.44;;;-0.69;100.00
64835;BME280;51293;59.296;18.006;2023-02-01T10:41:22;98805.75;;;-0.76;100.00
64835;BME280;51293;59.296;18.006;2023-02-01T10:43:54;98813.94;;;-0.71;100.00
64835;BME280;51293;59.296;18.006;2023-02-01T10:46:20;98812.69;;;-0.68;100.00
64835;BME280;51293;59.296;18.006;2023-02-01T10:48:48;98816.81;;;-0.66;100.00
64835;BME280;51293;59.296;18.006;2023-02-01T10:51:21;98811.06;;;-0.49;100.00
64835;BME280;51293;59.296;18.006;2023-02-01T10:53:50;98808.81;;;-0.59;100.00
64835;BME280;51293;59.296;18.006;2023-02-01T10:56:23;98817.00;;;-0.61;100.00
64835;BME280;51293;59.296;18.006;2023-02-01T10:58:49;98806.56;;;-0.62;100.00
64835;BME280;51293;59.296;18.006;2023-02-01T11:01:21;98813.09;;;-0.58;100.00
64835;BME280;51293;59.296;18.006;2023-02-01T11:03:57;98813.09;;;-0.58;100.00
64835;BME280;51293;59.296;18.006;2023-02-01T11:06:27;98810.03;;;-0.62;100.00
64835;BME280;51293;59.296;18.006;2023-02-01T11:08:58;98811.47;;;-0.52;100.00
64835;BME280;51293;59.296;18.006;2023-02-01T11:11:25;98811.69;;;-0.54;100.00
64835;BME280;51293;59.296;18.006;2023-02-01T11:14:02;98813.91;;;-0.51;100.00
64835;BME280;51293;59.296;18.006;2023-02-01T11:16:39;98815.75;;;-0.58;100.00
64835;BME280;51293;59.296;18.006;2023-02-01T11:19:05;98820.91;;;-0.57;100.00
64835;BME280;51293;59.296;18.006;2023-02-01T11:21:32;98825.19;;;-0.55;100.00
64835;BME280;51293;59.296;18.006;2023-02-01T11:24:05;98819.25;;;-0.58;100.00
64835;BME280;51293;59.296;18.006;2023-02-01T11:26:39;98822.94;;;-0.72;100.00
64835;BME280;51293;59.296;18.006;2023-02-01T11:29:12;98817.63;;;-0.65;100.00
64835;BME280;51293;59.296;18.006;2023-02-01T11:31:39;98821.69;;;-0.63;100.00
64835;BME280;51293;59.296;18.006;2023-02-01T11:34:12;98823.94;;;-0.60;100.00
64835;BME280;51293;59.296;18.006;2023-02-01T11:36:40;98821.72;;;-0.56;100.00
64835;BME280;51293;59.296;18.006;2023-02-01T11:41:42;98825.56;;;-0.52;100.00
64835;BME280;51293;59.296;18.006;2023-02-01T11:44:22;98818.41;;;-0.51;100.00
64835;BME280;51293;59.296;18.006;2023-02-01T11:46:48;98826.59;;;-0.46;100.00
64835;BME280;51293;59.296;18.006;2023-02-01T11:49:25;98831.50;;;-0.43;100.00
64835;BME280;51293;59.296;18.006;2023-02-01T12:03:27;98837.03;;;-0.32;100.00
64835;BME280;51293;59.296;18.006;2023-02-01T12:06:31;98837.03;;;-0.32;100.00
64835;BME280;51293;59.296;18.006;2023-02-01T12:27:55;98855.88;;;-0.40;100.00
64835;BME280;51293;59.296;18.006;2023-02-01T12:30:35;98848.50;;;-0.44;100.00
64835;BME280;51293;59.296;18.006;2023-02-01T12:33:49;98860.56;;;-0.42;100.00
64835;BME280;51293;59.296;18.006;2023-02-01T12:36:25;98863.25;;;-0.48;100.00
64835;BME280;51293;59.296;18.006;2023-02-01T12:44:37;98867.13;;;-0.58;100.00
64835;BME280;51293;59.296;18.006;2023-02-01T12:47:11;98860.97;;;-0.58;100.00
64835;BME280;51293;59.296;18.006;2023-02-01T12:49:41;98867.94;;;-0.64;100.00
64835;BME280;51293;59.296;18.006;2023-02-01T12:52:20;98868.75;;;-0.63;100.00
64835;BME280;51293;59.296;18.006;2023-02-01T12:54:55;98866.09;;;-0.63;100.00
64835;BME280;51293;59.296;18.006;2023-02-01T12:57:33;98865.06;;;-0.62;100.00
64835;BME280;51293;59.296;18.006;2023-02-01T13:05:44;98866.94;;;-0.49;100.00
64835;BME280;51293;59.296;18.006;2023-02-01T13:08:17;98862.81;;;-0.45;100.00
64835;BME280;51293;59.296;18.006;2023-02-01T13:10:47;98877.75;;;-0.44;100.00
64835;BME280;51293;59.296;18.006;2023-02-01T13:13:32;98870.19;;;-0.47;100.00
64835;BME280;51293;59.296;18.006;2023-02-01T13:16:15;98875.31;;;-0.46;100.00
64835;BME280;51293;59.296;18.006;2023-02-01T13:18:45;98887.19;;;-0.48;100.00
64835;BME280;51293;59.296;18.006;2023-02-01T13:21:26;98880.63;;;-0.46;100.00
64835;BME280;51293;59.296;18.006;2023-02-01T13:23:53;98891.69;;;-0.49;100.00
64835;BME280;51293;59.296;18.006;2023-02-01T13:26:18;98898.84;;;-0.49;100.00
64835;BME280;51293;59.296;18.006;2023-02-01T13:36:56;98906.19;;;-0.65;100.00
64835;BME280;51293;59.296;18.006;2023-02-01T13:39:45;98904.13;;;-0.69;100.00
64835;BME280;51293;59.296;18.006;2023-02-01T13:42:42;98915.38;;;-0.67;100.00
64835;BME280;51293;59.296;18.006;2023-02-01T13:45:20;98911.28;;;-0.70;100.00
64835;BME280;51293;59.296;18.006;2023-02-01T13:47:48;98921.31;;;-0.72;100.00
64835;BME280;51293;59.296;18.006;2023-02-01T13:50:28;98925.59;;;-0.71;100.00
64835;BME280;51293;59.296;18.006;2023-02-01T13:53:17;98923.53;;;-0.75;100.00
64835;BME280;51293;59.296;18.006;2023-02-01T13:55:54;98916.19;;;-0.73;100.00
64835;BME280;51293;59.296;18.006;2023-02-01T13:58:37;98922.91;;;-0.77;100.00
64835;BME280;51293;59.296;18.006;2023-02-01T14:03:54;98941.91;;;-0.87;100.00
64835;BME280;51293;59.296;18.006;2023-02-01T14:11:46;98947.22;;;-0.94;100.00
64835;BME280;51293;59.296;18.006;2023-02-01T14:16:42;98962.13;;;-0.99;100.00
64835;BME280;51293;59.296;18.006;2023-02-01T14:19:17;98965.19;;;-0.96;100.00
64835;BME280;51293;59.296;18.006;2023-02-01T14:21:49;98967.63;;;-1.01;100.00
64835;BME280;51293;59.296;18.006;2023-02-01T14:24:33;98975.78;;;-1.09;100.00
64835;BME280;51293;59.296;18.006;2023-02-01T14:27:01;98978.63;;;-1.10;100.00
64835;BME280;51293;59.296;18.006;2023-02-01T14:29:32;98982.31;;;-1.11;100.00
64835;BME280;51293;59.296;18.006;2023-02-01T14:34:39;98989.06;;;-1.16;100.00
64835;BME280;51293;59.296;18.006;2023-02-01T14:55:59;98998.19;;;-1.25;100.00
64835;BME280;51293;59.296;18.006;2023-02-01T15:01:24;99002.25;;;-1.29;100.00
64835;BME280;51293;59.296;18.006;2023-02-01T15:08:48;99020.59;;;-1.34;100.00
64835;BME280;51293;59.296;18.006;2023-02-01T15:11:15;99017.56;;;-1.31;100.00
64835;BME280;51293;59.296;18.006;2023-02-01T15:13:48;99014.28;;;-1.33;100.00